Туношна

СКИДКИ НА СМАРТФОНЫ!

Карта отелей и гостиниц, располагающихся рядом с аэропортом Туношна :

Туношна
Ярославль
Ярославская область 57° 33' 38.0988" N, 40° 9' 26.64" E
Код аэродрома ИКАО
UUDL
Код аэродрома RU
УУДЛ
Координаты
N57.56058° E040.15740°
Превышение над уровнем моря
93
Основная полоса
05/23
Курс магнитный
051,2/231,2
Длина основной ВПП
3020
Ширина основной ВПП
44
Покрытие основной ВПП
Твёрдое (асфальтобетон)
Освещение ВПП
Постоянное
Тип: 
Аэродром
Класс аэродрома: 
Международный
Принадлежность: 
ГА
Статус: 
Действующий
Сайт: 
http://www.yaravia.ru/
E-mail аэродрома: 
info@yaravia.ru
Страна: 
Россия
Регион: 
Ярославская область
Город: 
Ярославль
Дополнительная информация: 
Оператор: ОАО "Аэропорт Туношна". Нкр.=(300-700)м. В апреле 2016 г, согласно распоряжению Правительства РФ от 20 апреля 2016 г №726-р (в соответствии п. 8 ст. 40 ВК РФ), международный аэропорт Ярославль (Туношна) - аэропорт столицы субъекта РФ, включен в Перечень аэропортов Федерального значения.
Погода: 

Авиационная погода в Ярославле

Регион: 
Погода METAR: 
UUDL 250400Z 12002MPS 9999 OVC014 08/08 Q1002 R23/////// NOSIG RMK QFE743
Время наблюдения
2022-09-25T04:00:00Z
Температура C
8.0
Точка росы
8.0
Направление ветра
120
Скорость ветра (узлы)
4
Метео видимость
6.21
Облачность
OVC
Нижняя граница облачности (футы)
1400
Явления погоды
Условия полета
MVFR
Аэропорт подробнее: 
OVC – сплошная облачность;

Скидки на навигаторы!

Найти трансфер

С помощью этой формы Вы можете найти трансфер из аэропорта Туношна в город, аэропорт или вокзал:

Погода в аэропортах:

Авиационная погода в Пулково

Регион: 
Погода METAR: 
ULLI 250400Z 32005MPS 9000 -SHRA BKN011 BKN019CB 06/04 Q1007 R28R/290050 NOSIG
Время наблюдения
2022-09-25T04:00:00Z
Температура C
6.0
Точка росы
4.0
Направление ветра
320
Скорость ветра (узлы)
10
Метео видимость
5.59
Облачность
BKN
BKN
Нижняя граница облачности (футы)
1100
1900
Явления погоды
-SHRA
Условия полета
MVFR
Аэропорт подробнее: 
BKN – значительная (рассеянная, разорванная) облачность;
-SHRA - слабый ливневой дождь;

Авиационная погода в Москва - Домодедово

Погода METAR: 
UUDD 250400Z 14005MPS 5000 -RA BR OVC003 06/05 Q0997 R14R/290042 NOSIG
Время наблюдения
2022-09-25T04:00:00Z
Температура C
6.0
Точка росы
5.0
Направление ветра
140
Скорость ветра (узлы)
10
Метео видимость
3.11
Облачность
OVC
Нижняя граница облачности (футы)
300
Явления погоды
-RA BR
Условия полета
LIFR
Аэропорт подробнее: 
OVC – сплошная облачность;
-RA - слабый дождь; BR – дымка (видимость от 1 до 9 км);

Авиационная погода в Магнитогорске

Погода METAR: 
USCM 250400Z 20001MPS 3400 -SHRA BR OVC012CB 11/10 Q1010 R18/290155 TEMPO 21012MPS 1000 TSRA VV005 RMK QFE720
Время наблюдения
2022-09-25T04:00:00Z
Температура C
11.0
Точка росы
10.0
Направление ветра
200
Скорость ветра (узлы)
2
Метео видимость
2.11
Облачность
OVC
Нижняя граница облачности (футы)
1200
Явления погоды
-SHRA BR
Условия полета
IFR
Аэропорт подробнее: 
OVC – сплошная облачность;
-SHRA - слабый ливневой дождь; BR – дымка (видимость от 1 до 9 км);

Авиационная погода в Атырау

Регион: 
Погода METAR: 
UATG 250400Z 28006MPS 5000 BR SCT033CB 12/10 Q1013 NOSIG RMK QFE761/1015
Время наблюдения
2022-09-25T04:00:00Z
Температура C
12.0
Точка росы
10.0
Направление ветра
280
Скорость ветра (узлы)
12
Метео видимость
3.11
Облачность
SCT
Нижняя граница облачности (футы)
3300
Явления погоды
BR
Условия полета
MVFR
SCT – разбросанная отдельная облачность;
BR – дымка (видимость от 1 до 9 км);